Back to Top

Language: 

My Weather Underground Personal Weather Station Historical Data with Graphs...

Delerius Weather Station Historical Data
Daily Summary for September 15, 2017 Units:  English    Metric   Both
« Previous Day
Next Day »
Daily Weekly Monthly Yearly Custom
  High: Low: Average:
Temperature: 61.3 °F 44.8 °F 52.2 °F
Dew Point: 51.9 °F 42.1 °F 47 °F
Humidity: 93 % 60 % 83 %
Wind Speed: 9.0 mph 1.0 mph 4.3 mph
Wind Gust: 19.0 mph - -
Wind:- - West
Pressure: 29.92 in 29.86 in -
Precipitation: 0.13 in    
Historical Graphs
 
 
Tabular Data for September 15, 2017
Time Temperature Dew Point Pressure Wind Wind Speed Wind Gust Humidity Rainfall Rate (Hourly) solar Conditions
00:00 49.1 °F 45.1 °F 29.86 in WNW 5.0 mph 9.0 mph 86 % 0.00 in 0 W/m2
00:05 49.3 °F 45.3 °F 29.87 in WNW 5.0 mph 10.0 mph 86 % 0.00 in 0 W/m2
00:10 49.3 °F 45.3 °F 29.87 in WNW 6.0 mph 10.0 mph 86 % 0.00 in 0 W/m2
00:15 49.5 °F 45.4 °F 29.87 in WNW 6.0 mph 11.0 mph 86 % 0.00 in 0 W/m2
00:20 49.5 °F 45.4 °F 29.86 in WNW 6.0 mph 11.0 mph 86 % 0.00 in 0 W/m2
00:25 49.5 °F 45.4 °F 29.86 in WNW 6.0 mph 11.0 mph 86 % 0.00 in 0 W/m2
00:30 49.5 °F 45.4 °F 29.86 in WNW 7.0 mph 13.0 mph 86 % 0.00 in 0 W/m2
00:35 49.5 °F 45.1 °F 29.87 in WNW 7.0 mph 13.0 mph 85 % 0.00 in 0 W/m2
00:40 49.5 °F 45.1 °F 29.86 in WNW 7.0 mph 10.0 mph 85 % 0.00 in 0 W/m2
00:45 49.5 °F 45.1 °F 29.86 in WNW 7.0 mph 10.0 mph 85 % 0.00 in 0 W/m2
00:50 49.5 °F 45.1 °F 29.86 in WNW 6.0 mph 11.0 mph 85 % 0.00 in 0 W/m2
00:55 49.3 °F 45.0 °F 29.86 in WNW 6.0 mph 11.0 mph 85 % 0.00 in 0 W/m2
01:00 49.3 °F 45.0 °F 29.86 in WNW 6.0 mph 10.0 mph 85 % 0.00 in 0 W/m2
01:05 49.3 °F 45.0 °F 29.87 in WNW 6.0 mph 10.0 mph 85 % 0.00 in 0 W/m2
01:11 49.1 °F 44.8 °F 29.86 in WNW 5.0 mph 9.0 mph 85 % 0.00 in 0 W/m2
01:16 48.9 °F 44.6 °F 29.86 in WNW 5.0 mph 8.0 mph 85 % 0.00 in 0 W/m2
01:21 48.9 °F 44.6 °F 29.86 in WNW 5.0 mph 8.0 mph 85 % 0.00 in 0 W/m2
01:26 48.7 °F 44.4 °F 29.86 in WNW 6.0 mph 11.0 mph 85 % 0.00 in 0 W/m2
01:31 48.7 °F 44.4 °F 29.86 in WNW 6.0 mph 11.0 mph 85 % 0.00 in 0 W/m2
01:36 48.6 °F 44.3 °F 29.86 in WNW 6.0 mph 11.0 mph 85 % 0.00 in 0 W/m2
01:41 48.4 °F 44.1 °F 29.86 in WNW 5.0 mph 11.0 mph 85 % 0.00 in 0 W/m2
01:46 48.2 °F 43.9 °F 29.86 in WNW 5.0 mph 8.0 mph 85 % 0.00 in 0 W/m2
01:51 47.8 °F 43.9 °F 29.86 in WNW 5.0 mph 8.0 mph 86 % 0.00 in 0 W/m2
01:56 47.7 °F 43.7 °F 29.86 in WNW 5.0 mph 7.0 mph 86 % 0.00 in 0 W/m2
02:01 47.5 °F 43.5 °F 29.86 in West 4.0 mph 7.0 mph 86 % 0.00 in 0 W/m2
02:06 47.3 °F 43.6 °F 29.86 in West 4.0 mph 7.0 mph 87 % 0.00 in 0 W/m2
02:11 47.1 °F 43.4 °F 29.86 in WNW 3.0 mph 6.0 mph 87 % 0.00 in 0 W/m2
02:16 46.9 °F 43.3 °F 29.86 in WNW 4.0 mph 7.0 mph 87 % 0.00 in 0 W/m2
02:21 46.9 °F 43.3 °F 29.87 in WNW 3.0 mph 7.0 mph 87 % 0.00 in 0 W/m2
02:26 46.8 °F 43.4 °F 29.87 in WNW 3.0 mph 5.0 mph 88 % 0.00 in 0 W/m2
02:31 46.6 °F 42.9 °F 29.87 in WNW 2.0 mph 4.0 mph 87 % 0.00 in 0 W/m2
02:36 46.4 °F 43.0 °F 29.87 in WNW 2.0 mph 6.0 mph 88 % 0.00 in 0 W/m2
02:41 46.2 °F 42.9 °F 29.87 in WNW 2.0 mph 6.0 mph 88 % 0.00 in 0 W/m2
02:46 46.2 °F 42.9 °F 29.87 in WNW 2.0 mph 6.0 mph 88 % 0.00 in 0 W/m2
02:51 46.0 °F 42.7 °F 29.87 in WNW 1.0 mph 3.0 mph 88 % 0.00 in 0 W/m2
02:56 45.9 °F 42.5 °F 29.86 in WNW 1.0 mph 3.0 mph 88 % 0.00 in 0 W/m2
03:01 45.5 °F 42.2 °F 29.86 in WNW 1.0 mph 5.0 mph 88 % 0.00 in 0 W/m2
03:06 45.3 °F 42.3 °F 29.87 in WNW 2.0 mph 5.0 mph 89 % 0.00 in 0 W/m2
03:11 45.1 °F 42.1 °F 29.86 in WNW 3.0 mph 6.0 mph 89 % 0.00 in 0 W/m2
03:16 45.1 °F 42.4 °F 29.86 in WNW 3.0 mph 7.0 mph 90 % 0.00 in 0 W/m2
03:21 45.3 °F 42.8 °F 29.86 in WNW 5.0 mph 8.0 mph 91 % 0.00 in 0 W/m2
03:26 45.5 °F 42.7 °F 29.86 in WNW 4.0 mph 8.0 mph 90 % 0.00 in 0 W/m2
03:31 45.3 °F 42.6 °F 29.86 in WNW 3.0 mph 6.0 mph 90 % 0.00 in 0 W/m2
03:36 45.1 °F 42.4 °F 29.86 in WNW 3.0 mph 6.0 mph 90 % 0.00 in 0 W/m2
03:41 45.1 °F 42.4 °F 29.86 in WNW 3.0 mph 6.0 mph 90 % 0.00 in 0 W/m2
03:46 45.0 °F 42.2 °F 29.86 in WNW 4.0 mph 6.0 mph 90 % 0.00 in 0 W/m2
03:51 45.1 °F 42.7 °F 29.87 in WNW 4.0 mph 7.0 mph 91 % 0.00 in 0 W/m2
03:56 45.1 °F 42.7 °F 29.87 in WNW 4.0 mph 7.0 mph 91 % 0.00 in 0 W/m2
04:01 45.1 °F 42.7 °F 29.87 in WNW 3.0 mph 6.0 mph 91 % 0.00 in 0 W/m2
04:06 45.1 °F 42.4 °F 29.87 in WNW 2.0 mph 5.0 mph 90 % 0.00 in 0 W/m2
04:12 45.0 °F 42.2 °F 29.87 in WNW 2.0 mph 4.0 mph 90 % 0.00 in 0 W/m2
04:18 44.8 °F 42.3 °F 29.87 in WNW 2.0 mph 4.0 mph 91 % 0.00 in 0 W/m2
04:21 44.8 °F 42.3 °F 29.87 in WNW 2.0 mph 4.0 mph 91 % 0.00 in 0 W/m2
04:22 44.8 °F 42.3 °F 29.87 in WNW 2.0 mph 4.0 mph 91 % 0.00 in 0 W/m2
04:27 44.8 °F 42.3 °F 29.87 in WNW 2.0 mph 6.0 mph 91 % 0.00 in 0 W/m2
04:29 45.0 °F 42.5 °F 29.87 in WNW 3.0 mph 6.0 mph 91 % 0.00 in 0 W/m2
04:34 45.0 °F 42.8 °F 29.87 in WNW 3.0 mph 6.0 mph 92 % 0.00 in 0 W/m2
04:39 45.1 °F 43.0 °F 29.87 in WNW 2.0 mph 6.0 mph 92 % 0.00 in 0 W/m2
04:44 45.1 °F 42.7 °F 29.87 in WNW 2.0 mph 5.0 mph 91 % 0.00 in 0 W/m2
04:49 45.1 °F 42.7 °F 29.87 in WNW 2.0 mph 5.0 mph 91 % 0.00 in 0 W/m2
04:54 45.1 °F 42.7 °F 29.86 in WNW 2.0 mph 4.0 mph 91 % 0.00 in 0 W/m2
04:59 45.1 °F 42.7 °F 29.87 in WNW 1.0 mph 4.0 mph 91 % 0.00 in 0 W/m2
05:04 45.1 °F 43.0 °F 29.87 in WNW 1.0 mph 3.0 mph 92 % 0.00 in 0 W/m2
05:09 45.0 °F 42.8 °F 29.87 in WNW 1.0 mph 4.0 mph 92 % 0.00 in 0 W/m2
05:14 45.1 °F 43.0 °F 29.87 in WNW 2.0 mph 4.0 mph 92 % 0.00 in 0 W/m2
05:19 45.1 °F 43.0 °F 29.87 in WNW 2.0 mph 6.0 mph 92 % 0.00 in 0 W/m2
05:24 45.7 °F 43.8 °F 29.87 in WNW 3.0 mph 8.0 mph 93 % 0.00 in 0 W/m2
05:29 46.0 °F 44.1 °F 29.87 in WNW 4.0 mph 8.0 mph 93 % 0.00 in 0 W/m2
05:34 46.6 °F 44.7 °F 29.87 in WNW 4.0 mph 9.0 mph 93 % 0.00 in 0 W/m2
05:39 46.9 °F 45.0 °F 29.87 in WNW 4.0 mph 9.0 mph 93 % 0.00 in 0 W/m2
05:44 47.3 °F 45.4 °F 29.87 in WNW 4.0 mph 8.0 mph 93 % 0.00 in 0 W/m2
05:49 47.5 °F 45.6 °F 29.87 in WNW 4.0 mph 8.0 mph 93 % 0.00 in 0 W/m2
05:54 47.7 °F 45.7 °F 29.87 in WNW 4.0 mph 8.0 mph 93 % 0.01 in 0 W/m2
05:59 47.8 °F 45.9 °F 29.87 in WNW 4.0 mph 7.0 mph 93 % 0.01 in 0 W/m2
06:04 47.8 °F 45.9 °F 29.87 in WNW 4.0 mph 7.0 mph 93 % 0.01 in 0 W/m2
06:09 47.8 °F 45.9 °F 29.87 in WNW 3.0 mph 7.0 mph 93 % 0.01 in 0 W/m2
06:14 48.0 °F 46.1 °F 29.87 in WNW 3.0 mph 7.0 mph 93 % 0.01 in 0 W/m2
06:19 48.0 °F 46.1 °F 29.87 in WNW 2.0 mph 7.0 mph 93 % 0.01 in 0 W/m2
06:24 48.0 °F 46.1 °F 29.87 in WNW 2.0 mph 6.0 mph 93 % 0.01 in 0 W/m2
06:29 48.0 °F 46.1 °F 29.87 in WNW 3.0 mph 6.0 mph 93 % 0.01 in 0 W/m2
06:34 48.0 °F 46.1 °F 29.87 in WNW 2.0 mph 5.0 mph 93 % 0.01 in 0 W/m2
06:39 48.0 °F 46.1 °F 29.87 in WNW 2.0 mph 6.0 mph 93 % 0.01 in 0 W/m2
06:44 48.2 °F 46.3 °F 29.87 in WNW 3.0 mph 7.0 mph 93 % 0.01 in 0 W/m2
06:49 48.4 °F 46.4 °F 29.87 in WNW 4.0 mph 7.0 mph 93 % 0.01 in 5 W/m2
06:54 48.4 °F 46.4 °F 29.87 in WNW 4.0 mph 6.0 mph 93 % 0.00 in 9 W/m2
06:59 48.4 °F 46.4 °F 29.87 in WNW 4.0 mph 8.0 mph 93 % 0.00 in 9 W/m2
07:04 48.6 °F 46.6 °F 29.87 in WNW 4.0 mph 8.0 mph 93 % 0.00 in 14 W/m2
07:09 48.7 °F 46.8 °F 29.87 in WNW 4.0 mph 7.0 mph 93 % 0.00 in 14 W/m2
07:14 48.7 °F 46.8 °F 29.88 in WNW 5.0 mph 9.0 mph 93 % 0.00 in 19 W/m2
07:19 48.7 °F 46.8 °F 29.88 in WNW 4.0 mph 9.0 mph 93 % 0.00 in 39 W/m2
07:24 48.9 °F 47.0 °F 29.88 in WNW 4.0 mph 7.0 mph 93 % 0.00 in 51 W/m2
07:29 49.1 °F 47.2 °F 29.88 in WNW 4.0 mph 7.0 mph 93 % 0.00 in 79 W/m2
07:34 49.3 °F 47.3 °F 29.88 in WNW 4.0 mph 7.0 mph 93 % 0.00 in 98 W/m2
07:39 49.5 °F 47.5 °F 29.88 in WNW 3.0 mph 7.0 mph 93 % 0.00 in 72 W/m2
07:44 49.6 °F 47.7 °F 29.88 in WNW 4.0 mph 9.0 mph 93 % 0.00 in 58 W/m2
07:49 49.8 °F 47.9 °F 29.88 in WNW 4.0 mph 9.0 mph 93 % 0.00 in 54 W/m2
07:54 50.0 °F 48.1 °F 29.88 in WNW 3.0 mph 8.0 mph 93 % 0.00 in 54 W/m2
08:00 50.0 °F 48.1 °F 29.88 in NW 4.0 mph 8.0 mph 93 % 0.00 in 67 W/m2
08:05 50.2 °F 48.2 °F 29.89 in NW 5.0 mph 9.0 mph 93 % 0.00 in 70 W/m2
08:10 50.2 °F 47.9 °F 29.88 in NW 5.0 mph 9.0 mph 92 % 0.00 in 72 W/m2
08:15 50.4 °F 48.1 °F 29.89 in NW 4.0 mph 9.0 mph 92 % 0.00 in 70 W/m2
08:20 50.4 °F 48.1 °F 29.89 in NW 4.0 mph 7.0 mph 92 % 0.00 in 70 W/m2
08:25 50.5 °F 48.3 °F 29.89 in NW 4.0 mph 8.0 mph 92 % 0.00 in 72 W/m2
08:30 50.5 °F 48.3 °F 29.89 in NW 4.0 mph 8.0 mph 92 % 0.00 in 83 W/m2
08:35 50.7 °F 48.2 °F 29.89 in NW 4.0 mph 9.0 mph 91 % 0.00 in 95 W/m2
08:40 50.7 °F 48.2 °F 29.89 in NW 4.0 mph 9.0 mph 91 % 0.00 in 104 W/m2
08:45 50.9 °F 48.4 °F 29.89 in WNW 4.0 mph 8.0 mph 91 % 0.00 in 111 W/m2
08:50 51.1 °F 48.5 °F 29.89 in NW 4.0 mph 7.0 mph 91 % 0.00 in 123 W/m2
08:55 51.3 °F 48.7 °F 29.90 in NW 5.0 mph 10.0 mph 91 % 0.00 in 118 W/m2
09:00 51.4 °F 48.6 °F 29.90 in NW 5.0 mph 10.0 mph 90 % 0.00 in 111 W/m2
09:05 51.6 °F 48.8 °F 29.90 in WNW 5.0 mph 10.0 mph 90 % 0.00 in 128 W/m2
09:10 52.0 °F 49.1 °F 29.90 in WNW 5.0 mph 10.0 mph 90 % 0.00 in 146 W/m2
09:15 52.2 °F 49.0 °F 29.90 in NW 4.0 mph 8.0 mph 89 % 0.00 in 163 W/m2
09:20 52.3 °F 49.2 °F 29.91 in NW 4.0 mph 11.0 mph 89 % 0.00 in 169 W/m2
09:25 52.5 °F 49.1 °F 29.91 in NW 5.0 mph 11.0 mph 88 % 0.00 in 176 W/m2
09:30 52.9 °F 49.4 °F 29.91 in NW 5.0 mph 10.0 mph 88 % 0.00 in 211 W/m2
09:35 53.1 °F 49.6 °F 29.91 in NW 5.0 mph 11.0 mph 88 % 0.00 in 309 W/m2
09:40 53.4 °F 49.6 °F 29.91 in NW 6.0 mph 13.0 mph 87 % 0.00 in 327 W/m2
09:45 54.1 °F 50.0 °F 29.91 in NW 6.0 mph 13.0 mph 86 % 0.00 in 478 W/m2
09:50 54.7 °F 49.9 °F 29.91 in NW 7.0 mph 14.0 mph 84 % 0.00 in 413 W/m2
09:55 55.2 °F 50.1 °F 29.91 in NW 7.0 mph 14.0 mph 83 % 0.00 in 411 W/m2
10:00 55.8 °F 50.3 °F 29.91 in NW 6.0 mph 12.0 mph 82 % 0.00 in 490 W/m2
10:05 56.1 °F 50.4 °F 29.91 in NW 6.0 mph 15.0 mph 81 % 0.00 in 555 W/m2
10:10 56.1 °F 49.7 °F 29.91 in NW 7.0 mph 15.0 mph 79 % 0.00 in 229 W/m2
10:15 56.1 °F 49.0 °F 29.91 in NNW 7.0 mph 12.0 mph 77 % 0.00 in 172 W/m2
10:20 55.9 °F 49.2 °F 29.91 in NNW 6.0 mph 11.0 mph 78 % 0.00 in 155 W/m2
10:25 55.8 °F 49.3 °F 29.91 in NNW 6.0 mph 11.0 mph 79 % 0.00 in 229 W/m2
10:30 55.9 °F 49.9 °F 29.91 in NNW 4.0 mph 11.0 mph 80 % 0.00 in 185 W/m2
10:35 55.8 °F 49.3 °F 29.91 in NW 4.0 mph 10.0 mph 79 % 0.00 in 179 W/m2
10:40 55.9 °F 49.5 °F 29.91 in NW 5.0 mph 10.0 mph 79 % 0.00 in 740 W/m2
10:45 56.1 °F 49.0 °F 29.91 in NNW 7.0 mph 14.0 mph 77 % 0.00 in 740 W/m2
10:51 56.5 °F 49.0 °F 29.91 in NNW 7.0 mph 14.0 mph 76 % 0.00 in 200 W/m2
10:55 56.7 °F 48.5 °F 29.91 in NNW 7.0 mph 12.0 mph 74 % 0.00 in 176 W/m2
11:01 56.7 °F 48.5 °F 29.91 in NNW 7.0 mph 14.0 mph 74 % 0.00 in 316 W/m2
11:06 56.8 °F 48.3 °F 29.91 in North 6.0 mph 14.0 mph 73 % 0.00 in 830 W/m2
11:11 57.2 °F 49.0 °F 29.91 in North 6.0 mph 13.0 mph 74 % 0.00 in 141 W/m2
11:16 57.2 °F 48.3 °F 29.91 in NNE 5.0 mph 12.0 mph 72 % 0.00 in 162 W/m2
11:21 57.0 °F 48.1 °F 29.91 in North 5.0 mph 11.0 mph 72 % 0.00 in 267 W/m2
11:26 56.8 °F 47.9 °F 29.91 in NNE 5.0 mph 11.0 mph 72 % 0.00 in 186 W/m2
11:31 56.7 °F 47.7 °F 29.91 in NNE 5.0 mph 11.0 mph 72 % 0.00 in 160 W/m2
11:36 56.5 °F 47.6 °F 29.91 in North 6.0 mph 12.0 mph 72 % 0.00 in 169 W/m2
11:41 56.5 °F 47.6 °F 29.91 in North 6.0 mph 12.0 mph 72 % 0.00 in 227 W/m2
11:46 56.7 °F 47.7 °F 29.91 in NNW 5.0 mph 9.0 mph 72 % 0.00 in 243 W/m2
11:52 56.7 °F 47.7 °F 29.91 in NNW 4.0 mph 9.0 mph 72 % 0.00 in 251 W/m2
11:57 56.8 °F 47.9 °F 29.91 in North 4.0 mph 11.0 mph 72 % 0.00 in 218 W/m2
12:02 56.8 °F 47.9 °F 29.91 in North 5.0 mph 11.0 mph 72 % 0.00 in 197 W/m2
12:07 57.0 °F 48.1 °F 29.91 in North 5.0 mph 9.0 mph 72 % 0.00 in 192 W/m2
12:12 57.0 °F 47.7 °F 29.91 in North 5.0 mph 9.0 mph 71 % 0.00 in 183 W/m2
12:17 57.2 °F 47.9 °F 29.91 in North 4.0 mph 9.0 mph 71 % 0.00 in 200 W/m2
12:22 57.2 °F 47.9 °F 29.92 in NNW 5.0 mph 12.0 mph 71 % 0.00 in 232 W/m2
12:27 57.4 °F 48.1 °F 29.92 in North 6.0 mph 12.0 mph 71 % 0.00 in 294 W/m2
12:32 57.4 °F 48.1 °F 29.91 in NNW 6.0 mph 11.0 mph 71 % 0.00 in 517 W/m2
12:37 57.7 °F 48.0 °F 29.91 in NNW 7.0 mph 13.0 mph 70 % 0.00 in 330 W/m2
12:42 57.7 °F 48.0 °F 29.92 in North 7.0 mph 13.0 mph 70 % 0.00 in 336 W/m2
12:47 57.7 °F 48.0 °F 29.92 in NNE 6.0 mph 11.0 mph 70 % 0.00 in 257 W/m2
12:52 57.4 °F 47.3 °F 29.92 in NNE 6.0 mph 11.0 mph 69 % 0.00 in 181 W/m2
12:57 57.4 °F 47.7 °F 29.92 in North 7.0 mph 11.0 mph 70 % 0.00 in 230 W/m2
13:02 57.4 °F 47.7 °F 29.92 in North 7.0 mph 12.0 mph 70 % 0.00 in 320 W/m2
13:07 57.6 °F 48.2 °F 29.92 in North 6.0 mph 12.0 mph 71 % 0.00 in 322 W/m2
13:12 57.6 °F 47.8 °F 29.92 in North 6.0 mph 10.0 mph 70 % 0.00 in 295 W/m2
13:17 57.7 °F 48.0 °F 29.92 in North 6.0 mph 10.0 mph 70 % 0.00 in 315 W/m2
13:22 57.9 °F 47.4 °F 29.92 in North 5.0 mph 10.0 mph 68 % 0.00 in 329 W/m2
13:27 58.3 °F 47.8 °F 29.92 in North 5.0 mph 10.0 mph 68 % 0.00 in 248 W/m2
13:32 58.3 °F 47.8 °F 29.92 in NNE 5.0 mph 10.0 mph 68 % 0.00 in 214 W/m2
13:37 57.9 °F 47.8 °F 29.92 in NNE 5.0 mph 14.0 mph 69 % 0.00 in 246 W/m2
13:42 57.7 °F 47.6 °F 29.92 in NNE 6.0 mph 14.0 mph 69 % 0.00 in 272 W/m2
13:47 57.7 °F 47.6 °F 29.92 in North 6.0 mph 10.0 mph 69 % 0.00 in 396 W/m2
13:52 58.1 °F 48.0 °F 29.92 in North 5.0 mph 10.0 mph 69 % 0.00 in 364 W/m2
13:57 58.5 °F 47.5 °F 29.92 in NNW 6.0 mph 12.0 mph 67 % 0.00 in 406 W/m2
14:02 59.0 °F 47.7 °F 29.92 in NNW 7.0 mph 12.0 mph 66 % 0.00 in 418 W/m2
14:07 59.2 °F 47.8 °F 29.92 in NNW 6.0 mph 12.0 mph 66 % 0.00 in 206 W/m2
14:12 59.4 °F 47.6 °F 29.92 in North 5.0 mph 11.0 mph 65 % 0.00 in 221 W/m2
14:14 59.4 °F 47.6 °F 29.92 in North 5.0 mph 11.0 mph 65 % 0.00 in 243 W/m2
14:19 59.4 °F 47.6 °F 29.92 in NNW 6.0 mph 12.0 mph 65 % 0.00 in 309 W/m2
14:24 59.4 °F 47.6 °F 29.92 in NNW 6.0 mph 12.0 mph 65 % 0.00 in 352 W/m2
14:29 59.2 °F 47.4 °F 29.92 in North 5.0 mph 11.0 mph 65 % 0.00 in 292 W/m2
14:34 59.2 °F 47.4 °F 29.92 in NNE 5.0 mph 11.0 mph 65 % 0.00 in 281 W/m2
14:39 59.2 °F 47.4 °F 29.91 in NNE 5.0 mph 11.0 mph 65 % 0.00 in 341 W/m2
14:44 59.2 °F 47.4 °F 29.91 in NE 5.0 mph 11.0 mph 65 % 0.00 in 237 W/m2
14:49 59.4 °F 47.6 °F 29.92 in NE 4.0 mph 9.0 mph 65 % 0.00 in 134 W/m2
14:54 59.4 °F 47.2 °F 29.91 in North 4.0 mph 9.0 mph 64 % 0.00 in 171 W/m2
14:59 59.2 °F 47.0 °F 29.91 in North 5.0 mph 9.0 mph 64 % 0.00 in 192 W/m2
15:04 59.2 °F 46.6 °F 29.91 in North 5.0 mph 11.0 mph 63 % 0.00 in 236 W/m2
15:09 59.2 °F 46.6 °F 29.91 in NNW 5.0 mph 11.0 mph 63 % 0.00 in 278 W/m2
15:14 59.2 °F 46.6 °F 29.91 in North 6.0 mph 10.0 mph 63 % 0.00 in 253 W/m2
15:19 58.8 °F 46.2 °F 29.91 in North 5.0 mph 11.0 mph 63 % 0.00 in 290 W/m2
15:24 59.2 °F 47.0 °F 29.91 in North 5.0 mph 11.0 mph 64 % 0.00 in 657 W/m2
15:29 59.7 °F 47.5 °F 29.90 in NNW 4.0 mph 9.0 mph 64 % 0.00 in 708 W/m2
15:34 60.6 °F 47.5 °F 29.90 in NW 4.0 mph 9.0 mph 62 % 0.00 in 332 W/m2
15:39 60.8 °F 47.3 °F 29.90 in NNW 5.0 mph 12.0 mph 61 % 0.00 in 207 W/m2
15:44 60.6 °F 47.1 °F 29.90 in NW 6.0 mph 12.0 mph 61 % 0.00 in 121 W/m2
15:49 60.4 °F 47.4 °F 29.90 in NNW 6.0 mph 12.0 mph 62 % 0.00 in 84 W/m2
15:54 60.1 °F 47.4 °F 29.90 in NW 5.0 mph 11.0 mph 63 % 0.00 in 62 W/m2
15:59 59.7 °F 47.1 °F 29.90 in NW 6.0 mph 10.0 mph 63 % 0.00 in 56 W/m2
16:04 59.4 °F 47.6 °F 29.91 in NW 6.0 mph 10.0 mph 65 % 0.00 in 72 W/m2
16:09 59.0 °F 48.1 °F 29.90 in NW 5.0 mph 10.0 mph 67 % 0.00 in 88 W/m2
16:14 58.6 °F 48.5 °F 29.90 in NW 5.0 mph 10.0 mph 69 % 0.00 in 121 W/m2
16:19 58.3 °F 48.2 °F 29.90 in NW 5.0 mph 9.0 mph 69 % 0.00 in 153 W/m2
16:24 58.3 °F 48.5 °F 29.90 in NW 5.0 mph 10.0 mph 70 % 0.00 in 202 W/m2
16:29 58.3 °F 48.9 °F 29.90 in NW 5.0 mph 10.0 mph 71 % 0.00 in 229 W/m2
16:34 58.6 °F 48.5 °F 29.90 in NW 5.0 mph 8.0 mph 69 % 0.00 in 192 W/m2
16:39 59.0 °F 48.8 °F 29.90 in NW 5.0 mph 9.0 mph 69 % 0.00 in 461 W/m2
16:44 59.5 °F 49.0 °F 29.90 in NW 4.0 mph 9.0 mph 68 % 0.00 in 267 W/m2
16:49 60.1 °F 48.3 °F 29.90 in NW 5.0 mph 10.0 mph 65 % 0.00 in 390 W/m2
16:54 60.4 °F 48.2 °F 29.90 in NW 7.0 mph 10.0 mph 64 % 0.00 in 367 W/m2
17:00 60.8 °F 48.1 °F 29.90 in NW 6.0 mph 10.0 mph 63 % 0.00 in 86 W/m2
17:05 60.6 °F 47.1 °F 29.90 in NW 5.0 mph 10.0 mph 61 % 0.00 in 134 W/m2
17:10 60.6 °F 47.1 °F 29.90 in NW 6.0 mph 10.0 mph 61 % 0.00 in 313 W/m2
17:15 61.2 °F 47.6 °F 29.90 in NW 5.0 mph 9.0 mph 61 % 0.00 in 401 W/m2
17:20 61.3 °F 47.3 °F 29.90 in NW 5.0 mph 9.0 mph 60 % 0.00 in 54 W/m2
17:25 61.0 °F 48.3 °F 29.90 in NW 6.0 mph 14.0 mph 63 % 0.00 in 32 W/m2
17:30 60.1 °F 50.3 °F 29.91 in NW 8.0 mph 19.0 mph 70 % 0.01 in 18 W/m2
17:35 57.9 °F 50.0 °F 29.91 in NW 9.0 mph 19.0 mph 75 % 0.05 in 21 W/m2
17:40 55.8 °F 49.3 °F 29.91 in NNW 9.0 mph 14.0 mph 79 % 0.09 in 33 W/m2
17:45 54.7 °F 49.6 °F 29.91 in NNW 8.0 mph 14.0 mph 83 % 0.10 in 42 W/m2
17:50 54.0 °F 49.6 °F 29.91 in North 5.0 mph 11.0 mph 85 % 0.11 in 114 W/m2
17:55 53.8 °F 49.7 °F 29.91 in North 2.0 mph 8.0 mph 86 % 0.11 in 285 W/m2
18:00 54.0 °F 50.5 °F 29.91 in NNW 1.0 mph 5.0 mph 88 % 0.12 in 218 W/m2
18:05 54.3 °F 51.1 °F 29.91 in NNW 1.0 mph 5.0 mph 89 % 0.12 in 107 W/m2
18:10 54.7 °F 51.5 °F 29.91 in NNW 2.0 mph 5.0 mph 89 % 0.12 in 151 W/m2
18:15 55.0 °F 51.9 °F 29.91 in NW 2.0 mph 5.0 mph 89 % 0.12 in 40 W/m2
18:20 55.0 °F 51.9 °F 29.90 in WNW 3.0 mph 6.0 mph 89 % 0.12 in 97 W/m2
18:25 55.0 °F 51.9 °F 29.91 in West 2.0 mph 6.0 mph 89 % 0.12 in 81 W/m2
18:30 55.0 °F 51.5 °F 29.90 in West 1.0 mph 5.0 mph 88 % 0.11 in 23 W/m2
18:35 54.7 °F 51.2 °F 29.90 in West 1.0 mph 4.0 mph 88 % 0.07 in 18 W/m2
18:40 54.5 °F 51.0 °F 29.91 in West 1.0 mph 4.0 mph 88 % 0.02 in 16 W/m2
18:45 54.1 °F 50.7 °F 29.91 in West 2.0 mph 4.0 mph 88 % 0.02 in 12 W/m2
18:50 53.8 °F 50.6 °F 29.91 in WNW 2.0 mph 5.0 mph 89 % 0.01 in 16 W/m2
18:55 53.4 °F 50.3 °F 29.91 in NW 4.0 mph 11.0 mph 89 % 0.01 in 26 W/m2
19:00 53.1 °F 49.9 °F 29.91 in NW 6.0 mph 11.0 mph 89 % 0.00 in 28 W/m2
19:05 53.1 °F 49.9 °F 29.91 in NW 5.0 mph 10.0 mph 89 % 0.00 in 25 W/m2
19:10 53.1 °F 50.2 °F 29.91 in WNW 5.0 mph 8.0 mph 90 % 0.00 in 14 W/m2
19:15 52.9 °F 50.0 °F 29.91 in WNW 4.0 mph 8.0 mph 90 % 0.00 in 9 W/m2
19:20 52.9 °F 50.0 °F 29.91 in West 2.0 mph 5.0 mph 90 % 0.00 in 5 W/m2
19:25 52.7 °F 50.1 °F 29.91 in West 1.0 mph 5.0 mph 91 % 0.00 in 0 W/m2
19:30 52.5 °F 50.0 °F 29.91 in West 1.0 mph 4.0 mph 91 % 0.00 in 0 W/m2
19:35 52.5 °F 50.0 °F 29.91 in West 1.0 mph 5.0 mph 91 % 0.00 in 0 W/m2
19:40 52.3 °F 49.8 °F 29.91 in West 3.0 mph 6.0 mph 91 % 0.00 in 0 W/m2
19:45 52.2 °F 49.6 °F 29.91 in West 4.0 mph 6.0 mph 91 % 0.00 in 0 W/m2
19:51 51.8 °F 49.3 °F 29.91 in West 2.0 mph 6.0 mph 91 % 0.00 in 0 W/m2
19:56 51.6 °F 49.4 °F 29.91 in West 1.0 mph 5.0 mph 92 % 0.00 in 0 W/m2
20:01 51.4 °F 49.2 °F 29.91 in West 1.0 mph 4.0 mph 92 % 0.00 in 0 W/m2
20:06 51.3 °F 49.0 °F 29.91 in WNW 2.0 mph 6.0 mph 92 % 0.00 in 0 W/m2
20:11 51.1 °F 48.8 °F 29.91 in WNW 3.0 mph 6.0 mph 92 % 0.00 in 0 W/m2
20:16 50.9 °F 48.7 °F 29.91 in WNW 3.0 mph 6.0 mph 92 % 0.00 in 0 W/m2
20:21 50.7 °F 48.2 °F 29.91 in WNW 3.0 mph 6.0 mph 91 % 0.00 in 0 W/m2
20:26 50.5 °F 48.0 °F 29.92 in WNW 3.0 mph 6.0 mph 91 % 0.00 in 0 W/m2
20:31 50.2 °F 47.7 °F 29.92 in WNW 2.0 mph 5.0 mph 91 % 0.00 in 0 W/m2
20:36 50.0 °F 47.5 °F 29.92 in WNW 2.0 mph 5.0 mph 91 % 0.00 in 0 W/m2
20:41 49.8 °F 47.6 °F 29.92 in WNW 2.0 mph 6.0 mph 92 % 0.00 in 0 W/m2
20:46 49.6 °F 47.4 °F 29.92 in WNW 4.0 mph 7.0 mph 92 % 0.00 in 0 W/m2
20:51 49.6 °F 47.4 °F 29.92 in WNW 4.0 mph 7.0 mph 92 % 0.00 in 0 W/m2
20:56 49.5 °F 47.2 °F 29.92 in WNW 3.0 mph 7.0 mph 92 % 0.00 in 0 W/m2
21:01 49.5 °F 47.2 °F 29.92 in WNW 2.0 mph 5.0 mph 92 % 0.00 in 0 W/m2
21:06 49.3 °F 47.1 °F 29.92 in WNW 2.0 mph 5.0 mph 92 % 0.00 in 0 W/m2
21:11 49.3 °F 47.1 °F 29.92 in WNW 3.0 mph 5.0 mph 92 % 0.00 in 0 W/m2
21:16 49.3 °F 47.1 °F 29.91 in WNW 3.0 mph 6.0 mph 92 % 0.00 in 0 W/m2
21:21 49.3 °F 47.1 °F 29.92 in WNW 3.0 mph 6.0 mph 92 % 0.00 in 0 W/m2
21:26 49.1 °F 46.9 °F 29.92 in WNW 4.0 mph 7.0 mph 92 % 0.00 in 0 W/m2
21:31 49.1 °F 46.9 °F 29.91 in WNW 5.0 mph 7.0 mph 92 % 0.00 in 0 W/m2
21:36 49.3 °F 47.3 °F 29.92 in WNW 4.0 mph 8.0 mph 93 % 0.00 in 0 W/m2
21:41 49.1 °F 46.9 °F 29.92 in WNW 4.0 mph 8.0 mph 92 % 0.00 in 0 W/m2
21:46 49.1 °F 46.9 °F 29.91 in WNW 4.0 mph 6.0 mph 92 % 0.00 in 0 W/m2
21:51 48.9 °F 46.7 °F 29.91 in WNW 3.0 mph 6.0 mph 92 % 0.00 in 0 W/m2
21:56 48.7 °F 46.5 °F 29.92 in WNW 3.0 mph 7.0 mph 92 % 0.00 in 0 W/m2
22:01 48.7 °F 46.5 °F 29.92 in WNW 4.0 mph 7.0 mph 92 % 0.00 in 0 W/m2
22:06 48.7 °F 46.5 °F 29.92 in WNW 5.0 mph 11.0 mph 92 % 0.00 in 0 W/m2
22:11 48.9 °F 46.7 °F 29.91 in WNW 6.0 mph 11.0 mph 92 % 0.00 in 0 W/m2
22:16 48.9 °F 46.7 °F 29.92 in WNW 5.0 mph 10.0 mph 92 % 0.00 in 0 W/m2
22:21 49.1 °F 46.9 °F 29.91 in NW 4.0 mph 9.0 mph 92 % 0.00 in 0 W/m2
22:27 49.3 °F 47.1 °F 29.92 in NW 5.0 mph 9.0 mph 92 % 0.00 in 0 W/m2
22:32 49.5 °F 46.9 °F 29.92 in NW 6.0 mph 11.0 mph 91 % 0.00 in 0 W/m2
22:37 49.6 °F 47.1 °F 29.92 in NW 6.0 mph 11.0 mph 91 % 0.00 in 0 W/m2
22:42 49.6 °F 47.1 °F 29.92 in WNW 5.0 mph 9.0 mph 91 % 0.00 in 0 W/m2
22:47 49.8 °F 47.0 °F 29.92 in WNW 5.0 mph 9.0 mph 90 % 0.00 in 0 W/m2
22:52 49.8 °F 47.0 °F 29.92 in NW 4.0 mph 8.0 mph 90 % 0.00 in 0 W/m2
22:57 49.8 °F 47.0 °F 29.92 in NW 4.0 mph 8.0 mph 90 % 0.00 in 0 W/m2
23:02 49.8 °F 47.3 °F 29.92 in WNW 5.0 mph 11.0 mph 91 % 0.00 in 0 W/m2
23:07 49.8 °F 47.3 °F 29.92 in WNW 4.0 mph 11.0 mph 91 % 0.00 in 0 W/m2
23:12 49.8 °F 47.3 °F 29.92 in NW 3.0 mph 7.0 mph 91 % 0.00 in 0 W/m2
23:17 49.8 °F 47.3 °F 29.92 in NW 3.0 mph 8.0 mph 91 % 0.00 in 0 W/m2
23:22 50.0 °F 47.5 °F 29.91 in NW 4.0 mph 9.0 mph 91 % 0.00 in 0 W/m2
23:27 50.2 °F 47.4 °F 29.92 in WNW 4.0 mph 9.0 mph 90 % 0.00 in 0 W/m2
23:32 50.2 °F 47.4 °F 29.92 in NW 4.0 mph 7.0 mph 90 % 0.00 in 0 W/m2
23:37 50.2 °F 47.4 °F 29.92 in NW 3.0 mph 6.0 mph 90 % 0.00 in 0 W/m2
23:42 50.2 °F 47.4 °F 29.92 in WNW 3.0 mph 7.0 mph 90 % 0.00 in 0 W/m2
23:47 50.0 °F 47.2 °F 29.91 in WNW 4.0 mph 7.0 mph 90 % 0.00 in 0 W/m2
23:52 50.0 °F 47.2 °F 29.91 in WNW 4.0 mph 7.0 mph 90 % 0.00 in 0 W/m2
Delerius-Weather
Compliments of Weather Underground - 2.25 mb

Data updates at regular intervals.